Time;durP1;ratioP1;P1;durP2;ratioP2;P2;SDS_P1;SDS_P2;PMS_P1;PMS_P2;Temp;Humidity;BMP_temperature;BMP_pressure;BME280_temperature;BME280_humidity;BME280_pressure;Samples;Min_cycle;Max_cycle;Signal;HPM_P1;HPM_P2
2022/11/01 00:01:32;;;;;;;26.15;9.13;;;;;;;12.80;65.23;100774.31;5088974;28;20055;-27
2022/11/01 00:03:57;;;;;;;19.77;9.90;;;;;;;12.72;64.99;100764.69;5070533;28;20042;-26
2022/11/01 00:06:23;;;;;;;21.60;10.93;;;;;;;12.86;64.65;100776.94;5088306;28;20482;-26
2022/11/01 00:08:48;;;;;;;21.42;11.52;;;;;;;12.56;65.18;100774.03;5070420;28;20049;-27
2022/11/01 00:11:16;;;;;;;17.35;9.27;;;;;;;12.59;65.22;100772.81;5088655;28;20078;-28
2022/11/01 00:13:44;;;;;;;20.08;9.63;;;;;;;12.60;64.62;100758.38;5070175;28;20028;-29
2022/11/01 00:16:10;;;;;;;15.00;8.75;;;;;;;12.59;64.73;100764.78;5088510;28;20403;-27
2022/11/01 00:18:35;;;;;;;16.70;9.40;;;;;;;12.58;64.30;100765.78;5088000;28;20126;-28
2022/11/01 00:21:01;;;;;;;17.98;9.32;;;;;;;12.52;65.03;100780.03;5088787;28;20036;-28
2022/11/01 00:23:26;;;;;;;16.27;9.32;;;;;;;12.27;65.12;100778.91;5070151;28;20047;-30
2022/11/01 00:25:51;;;;;;;15.77;9.63;;;;;;;12.06;66.48;100782.69;5088565;28;20051;-25
2022/11/01 00:28:17;;;;;;;18.77;10.05;;;;;;;12.16;66.46;100782.25;5088243;28;20392;-27
2022/11/01 00:30:42;;;;;;;15.68;9.52;;;;;;;11.69;67.71;100770.00;5088349;28;20527;-27
2022/11/01 00:33:08;;;;;;;15.30;8.00;;;;;;;11.43;68.52;100753.00;5088113;28;20024;-25
2022/11/01 00:35:37;;;;;;;17.85;8.65;;;;;;;11.96;67.00;100778.84;5088325;28;20505;-25
2022/11/01 00:38:05;;;;;;;14.88;9.30;;;;;;;12.22;66.04;100777.94;5069876;28;20389;-28
2022/11/01 00:40:30;;;;;;;18.08;9.25;;;;;;;12.02;66.35;100781.47;5087807;28;20032;-26
2022/11/01 00:42:56;;;;;;;17.45;8.90;;;;;;;12.07;66.42;100775.50;5086750;28;20040;-27
2022/11/01 00:45:21;;;;;;;15.48;8.85;;;;;;;11.99;67.10;100773.06;5087958;28;20511;-27
2022/11/01 00:47:47;;;;;;;19.17;9.50;;;;;;;11.76;67.81;100786.88;5087885;28;20032;-28
2022/11/01 00:50:12;;;;;;;17.08;9.52;;;;;;;11.84;67.34;100754.56;5087504;28;20055;-26
2022/11/01 00:52:38;;;;;;;17.55;9.45;;;;;;;12.02;67.05;100778.00;5087465;28;20480;-26
2022/11/01 00:55:04;;;;;;;16.65;9.05;;;;;;;12.20;65.68;100766.63;5087801;28;20446;-28
2022/11/01 00:57:29;;;;;;;15.88;9.43;;;;;;;11.85;66.75;100750.88;5087700;28;20023;-26
2022/11/01 00:59:55;;;;;;;14.27;8.65;;;;;;;11.79;66.79;100751.69;5069642;28;20032;-28
2022/11/01 01:02:20;;;;;;;16.83;9.43;;;;;;;11.69;66.65;100756.66;5087283;28;20397;-28
2022/11/01 01:04:47;;;;;;;17.25;9.80;;;;;;;11.35;67.66;100745.22;5087426;28;20539;-26
2022/11/01 01:07:12;;;;;;;17.73;8.20;;;;;;;11.59;66.85;100741.06;5087612;28;20076;-29
2022/11/01 01:09:38;;;;;;;16.92;9.07;;;;;;;11.88;65.79;100760.31;5087692;28;20028;-25
2022/11/01 01:12:04;;;;;;;16.27;9.40;;;;;;;12.05;64.62;100772.22;5087646;28;20036;-29
2022/11/01 01:14:30;;;;;;;15.27;8.43;;;;;;;11.96;65.02;100768.97;5087142;28;20063;-25
2022/11/01 01:16:55;;;;;;;17.20;9.07;;;;;;;11.69;64.65;100778.03;5086074;28;20060;-27
2022/11/01 01:19:21;;;;;;;16.83;10.00;;;;;;;11.27;66.28;100754.25;5087368;28;20032;-27
2022/11/01 01:21:46;;;;;;;19.38;9.57;;;;;;;11.41;66.29;100771.09;5069454;28;20040;-27
2022/11/01 01:24:12;;;;;;;19.73;9.68;;;;;;;11.41;66.13;100769.25;5087270;28;20031;-26
2022/11/01 01:26:37;;;;;;;17.88;10.70;;;;;;;11.15;67.36;100746.03;5085639;28;20040;-28
2022/11/01 01:29:03;;;;;;;22.40;10.30;;;;;;;11.19;67.36;100767.81;5087005;28;20016;-25
2022/11/01 01:31:28;;;;;;;21.05;11.02;;;;;;;11.32;66.85;100767.81;5087065;28;20035;-26
2022/11/01 01:33:53;;;;;;;21.00;11.65;;;;;;;10.98;67.71;100755.50;5087219;28;20027;-26
2022/11/01 01:36:19;;;;;;;22.85;11.30;;;;;;;11.24;66.86;100762.69;5086930;28;20480;-28
2022/11/01 01:38:44;;;;;;;22.25;11.10;;;;;;;11.33;65.24;100758.78;5087291;28;20032;-27
2022/11/01 01:43:55;;;;;;;20.48;10.90;;;;;;;11.16;65.79;100746.88;5087035;28;20480;-26
2022/11/01 01:46:20;;;;;;;26.02;11.82;;;;;;;11.05;67.45;100769.66;5085436;28;20119;-25
2022/11/01 01:48:52;;;;;;;21.95;10.45;;;;;;;11.03;66.63;100758.34;5087127;28;20024;-26
2022/11/01 01:51:22;;;;;;;20.55;10.20;;;;;;;10.55;68.09;100751.31;5087053;28;20035;-31
2022/11/01 01:53:51;;;;;;;17.00;9.77;;;;;;;10.52;68.81;100778.41;5087104;28;20206;-26
2022/11/01 01:56:19;;;;;;;21.50;11.55;;;;;;;10.73;68.04;100780.09;5086606;28;20028;-26
2022/11/01 01:58:56;;;;;;;19.77;10.50;;;;;;;10.68;68.77;100777.19;5087137;28;20742;-28
2022/11/01 02:01:21;;;;;;;20.63;10.30;;;;;;;10.70;68.11;100759.16;5086551;28;20054;-27
2022/11/01 02:03:47;;;;;;;19.42;11.10;;;;;;;10.80;67.83;100770.25;5068703;28;20036;-27
2022/11/01 02:06:22;;;;;;;22.58;10.32;;;;;;;10.56;69.12;100787.66;5085101;28;20055;-27
2022/11/01 02:08:55;;;;;;;25.00;11.02;;;;;;;10.30;70.02;100780.38;5086882;28;20031;-27
2022/11/01 02:11:21;;;;;;;27.45;12.60;;;;;;;10.19;71.88;100783.56;5087085;28;20032;-29
2022/11/01 02:13:47;;;;;;;19.90;10.70;;;;;;;10.57;70.17;100775.94;5068651;28;20024;-27
2022/11/01 02:16:31;;;;;;;19.52;10.60;;;;;;;10.81;69.71;100792.44;5086809;28;20092;-26
2022/11/01 02:19:20;;;;;;;20.95;10.98;;;;;;;10.81;69.98;100797.78;5085306;28;20131;-26
2022/11/01 02:22:04;;;;;;;27.42;12.77;;;;;;;10.97;69.19;100793.88;5086860;28;20042;-26
2022/11/01 02:25:09;;;;;;;25.73;12.05;;;;;;;10.84;69.31;100797.34;5086594;28;20031;-27
2022/11/01 02:27:51;;;;;;;22.05;11.15;;;;;;;10.57;69.90;100764.47;5086529;28;20460;-26
2022/11/01 02:30:20;;;;;;;18.23;10.27;;;;;;;10.88;68.75;100776.44;5086556;28;20035;-26
2022/11/01 02:33:12;;;;;;;21.45;9.45;;;;;;;10.65;69.63;100805.09;5068360;28;20046;-26
2022/11/01 02:36:00;;;;;;;17.13;8.88;;;;;;;10.48;71.41;100805.66;5086587;28;20024;-26
2022/11/01 02:38:34;;;;;;;;;;;;;;;10.06;71.70;100806.47;5086916;28;20063;-31
2022/11/01 02:41:10;;;;;;;19.08;9.50;;;;;;;9.81;72.21;100787.50;5086802;28;19915;-30
2022/11/01 02:43:48;;;;;;;16.48;9.77;;;;;;;9.94;72.30;100813.38;5086619;28;20103;-25
2022/11/01 02:49:01;;;;;;;17.15;9.43;;;;;;;9.74;73.22;100796.47;5086709;28;20039;-29
2022/11/01 02:51:28;;;;;;;20.00;9.30;;;;;;;9.89;72.54;100783.00;5067892;28;20035;-28
2022/11/01 02:53:54;;;;;;;20.10;10.48;;;;;;;10.04;72.16;100811.19;5086284;28;20510;-27
2022/11/01 02:56:21;;;;;;;19.70;9.07;;;;;;;9.88;73.37;100803.50;5086079;28;20024;-26
2022/11/01 02:58:47;;;;;;;16.15;9.25;;;;;;;10.01;72.02;100782.28;5086072;28;20027;-26
2022/11/01 03:01:21;;;;;;;18.67;9.73;;;;;;;10.16;70.78;100784.00;5086214;28;20126;-27
2022/11/01 03:03:49;;;;;;;19.10;9.73;;;;;;;10.37;70.18;100807.88;5086174;28;20089;-25
2022/11/01 03:06:26;;;;;;;19.17;9.65;;;;;;;10.48;69.18;100795.00;5085928;28;20508;-27
2022/11/01 03:09:12;;;;;;;17.25;9.43;;;;;;;10.51;69.49;100816.75;5084464;28;20028;-28
2022/11/01 03:11:49;;;;;;;25.05;10.82;;;;;;;10.15;70.64;100809.78;5086427;28;20500;-26
2022/11/01 03:14:24;;;;;;;15.80;8.90;;;;;;;10.19;70.83;100821.72;5071569;28;20484;-27
2022/11/01 03:17:08;;;;;;;23.05;9.20;;;;;;;10.26;70.54;100803.09;5089708;28;20032;-27
2022/11/01 03:19:44;;;;;;;17.90;10.25;;;;;;;10.28;70.89;100817.06;5089729;28;20039;-27
2022/11/01 03:22:12;;;;;;;16.02;8.77;;;;;;;10.25;71.29;100834.25;5089756;28;20496;-26
2022/11/01 03:24:49;;;;;;;20.50;9.30;;;;;;;10.09;71.52;100802.59;5089593;28;20063;-26
2022/11/01 03:27:35;;;;;;;22.73;10.30;;;;;;;10.47;70.55;100822.69;5089480;28;20036;-25
2022/11/01 03:30:08;;;;;;;19.35;11.63;;;;;;;10.29;70.77;100791.22;5089392;28;20032;-29
2022/11/01 03:32:46;;;;;;;16.20;9.32;;;;;;;10.39;71.32;100815.69;5054670;28;20028;-25
2022/11/01 03:35:17;;;;;;;17.85;9.50;;;;;;;10.13;71.83;100821.69;5089674;28;20032;-27
2022/11/01 03:37:45;;;;;;;20.63;9.45;;;;;;;9.84;72.55;100810.25;5071245;28;20036;-26
2022/11/01 03:40:13;;;;;;;14.73;8.85;;;;;;;9.76;72.96;100807.75;5089464;28;20028;-25
2022/11/01 03:42:42;;;;;;;14.70;8.73;;;;;;;9.77;72.30;100804.06;5088939;28;20058;-27
2022/11/01 03:45:10;;;;;;;14.98;9.07;;;;;;;9.76;72.63;100821.06;5070909;28;20031;-27
2022/11/01 03:47:36;;;;;;;16.80;10.00;;;;;;;9.81;71.71;100813.31;5089320;28;20024;-27
2022/11/01 03:50:11;;;;;;;16.70;9.90;;;;;;;10.10;71.37;100838.09;5089137;28;20034;-26
2022/11/01 03:52:36;;;;;;;18.88;10.75;;;;;;;9.89;71.45;100815.81;5088530;28;20036;-27
2022/11/01 03:55:16;;;;;;;17.08;9.40;;;;;;;9.64;72.85;100834.94;5089142;28;20031;-28
2022/11/01 03:57:52;;;;;;;16.25;9.30;;;;;;;9.79;72.58;100831.34;5088991;28;20032;-30
2022/11/01 04:00:23;;;;;;;18.05;10.23;;;;;;;9.68;72.88;100797.25;5088829;28;20024;-29
2022/11/01 04:02:50;;;;;;;15.85;9.52;;;;;;;9.80;73.10;100832.97;5088894;28;20063;-26
2022/11/01 04:05:16;;;;;;;17.23;10.40;;;;;;;9.62;73.87;100828.13;5088579;28;20060;-26
2022/11/01 04:07:43;;;;;;;17.00;9.48;;;;;;;9.40;74.82;100835.34;5088475;28;20047;-27
2022/11/01 04:10:10;;;;;;;17.70;9.45;;;;;;;9.22;74.41;100812.66;5087473;28;20028;-25
2022/11/01 04:12:35;;;;;;;16.58;10.10;;;;;;;9.67;72.95;100832.91;5070060;28;20043;-29
2022/11/01 04:20:32;;;;;;;15.88;9.57;;;;;;;9.31;74.61;100841.81;5088711;28;20411;-28
2022/11/01 04:23:01;;;;;;;;;;;;;;;9.40;74.70;100843.34;5088904;28;20071;-25
2022/11/01 04:25:27;;;;;;;31.00;11.13;;;;;;;9.68;73.69;100834.53;5088389;28;19912;-27
2022/11/01 04:27:55;;;;;;;25.50;12.55;;;;;;;9.68;73.54;100824.69;5069224;28;20027;-27
2022/11/01 04:30:24;;;;;;;27.67;11.82;;;;;;;9.55;73.90;100835.25;5086997;28;20028;-28
2022/11/01 04:32:50;;;;;;;25.25;12.02;;;;;;;9.34;74.10;100817.50;5088068;28;20028;-26
2022/11/01 04:35:16;;;;;;;29.75;12.38;;;;;;;9.26;75.29;100829.09;5088301;28;20026;-27
2022/11/01 04:37:42;;;;;;;27.10;10.40;;;;;;;9.58;74.17;100829.53;5088003;28;20049;-31
2022/11/01 04:40:08;;;;;;;20.23;10.70;;;;;;;9.77;73.38;100833.38;5088309;28;20028;-25
2022/11/01 04:42:34;;;;;;;22.15;11.27;;;;;;;9.58;73.41;100840.19;5086174;28;20027;-29
2022/11/01 04:45:00;;;;;;;29.83;12.02;;;;;;;9.04;75.11;100833.59;5087931;28;20032;-27
2022/11/01 04:47:25;;;;;;;17.25;8.73;;;;;;;9.24;74.87;100834.59;5088517;28;20028;-27
2022/11/01 04:49:51;;;;;;;15.90;9.25;;;;;;;9.44;73.71;100828.63;5088201;28;20036;-26
2022/11/01 04:52:16;;;;;;;19.75;10.00;;;;;;;9.54;72.51;100813.13;5087847;28;20032;-28
2022/11/01 04:54:42;;;;;;;22.05;9.00;;;;;;;9.49;72.67;100825.38;5087574;28;20119;-27
2022/11/01 04:57:21;;;;;;;19.42;8.60;;;;;;;9.54;72.68;100837.09;5069580;28;20102;-27
2022/11/01 04:59:47;;;;;;;24.52;8.90;;;;;;;9.68;71.60;100829.19;5087618;28;20032;-27
2022/11/01 05:02:13;;;;;;;17.80;8.95;;;;;;;9.50;71.63;100827.84;5087885;28;20107;-27
2022/11/01 05:04:38;;;;;;;19.52;8.45;;;;;;;9.41;72.94;100840.47;5086022;28;20423;-27
2022/11/01 05:07:03;;;;;;;19.25;8.82;;;;;;;9.06;74.16;100839.53;5087695;28;20039;-28
2022/11/01 05:09:29;;;;;;;18.65;8.77;;;;;;;9.00;74.55;100827.81;5087340;28;20109;-32
2022/11/01 05:11:54;;;;;;;30.77;11.30;;;;;;;8.99;74.56;100844.81;5087739;28;20480;-26
2022/11/01 05:14:20;;;;;;;24.42;9.07;;;;;;;8.77;73.92;100833.31;5087006;28;20031;-25
2022/11/01 05:16:45;;;;;;;24.90;10.10;;;;;;;8.69;74.67;100852.03;5087264;28;20026;-27
2022/11/01 05:19:10;;;;;;;20.27;11.10;;;;;;;8.69;74.91;100833.44;5087650;28;20085;-25
2022/11/01 05:21:36;;;;;;;26.50;10.95;;;;;;;8.94;74.12;100839.22;5069104;28;20377;-25
2022/11/01 05:24:01;;;;;;;23.50;10.75;;;;;;;9.00;73.97;100838.44;5087323;28;20039;-31
2022/11/01 05:26:26;;;;;;;28.58;12.68;;;;;;;9.12;74.56;100864.56;5087090;28;20024;-26
2022/11/01 05:28:52;;;;;;;22.80;10.68;;;;;;;8.78;75.78;100850.91;5087232;28;20028;-26
2022/11/01 05:31:17;;;;;;;25.02;10.95;;;;;;;8.88;75.49;100863.09;5087337;28;20028;-31
2022/11/01 05:33:43;;;;;;;27.48;10.38;;;;;;;9.45;72.58;100872.84;5087545;28;20512;-27
2022/11/01 05:36:08;;;;;;;25.25;9.73;;;;;;;9.59;71.53;100863.16;5086988;28;20062;-28
2022/11/01 05:38:33;;;;;;;31.30;10.88;;;;;;;9.49;72.08;100870.66;5086994;28;20032;-26
2022/11/01 05:41:01;;;;;;;27.48;10.40;;;;;;;9.57;71.86;100873.97;5087310;28;20024;-26
2022/11/01 05:43:27;;;;;;;22.42;11.57;;;;;;;9.81;71.82;100861.28;5086923;28;20110;-28
2022/11/01 05:45:52;;;;;;;26.42;14.30;;;;;;;9.86;72.60;100874.81;5087106;28;20093;-26
2022/11/01 05:48:17;;;;;;;28.23;14.85;;;;;;;9.97;72.35;100879.63;5086881;28;20104;-27
2022/11/01 05:50:43;;;;;;;25.48;12.45;;;;;;;9.94;71.81;100861.34;5087137;28;20514;-25
2022/11/01 05:53:09;;;;;;;24.70;11.32;;;;;;;9.79;73.45;100889.94;5068466;28;20023;-28
2022/11/01 05:55:35;;;;;;;22.38;12.10;;;;;;;9.75;74.58;100884.16;5086759;28;20096;-27
2022/11/01 05:58:01;;;;;;;30.40;11.90;;;;;;;9.80;74.00;100872.94;5068516;28;20020;-27
2022/11/01 06:00:26;;;;;;;16.20;10.55;;;;;;;9.93;73.42;100870.38;5086663;28;20024;-26
2022/11/01 06:02:52;;;;;;;21.33;10.07;;;;;;;10.13;72.50;100875.81;5086871;28;20419;-27
2022/11/01 06:05:17;;;;;;;13.52;8.23;;;;;;;10.04;73.24;100883.13;5086465;28;20052;-29
2022/11/01 06:07:43;;;;;;;19.73;8.70;;;;;;;10.25;73.14;100892.06;5086848;28;20028;-26
2022/11/01 06:10:08;;;;;;;13.75;8.57;;;;;;;10.44;73.03;100899.41;5086623;28;20028;-26
2022/11/01 06:12:34;;;;;;;19.13;8.65;;;;;;;10.64;72.09;100896.84;5084732;28;20055;-27
2022/11/01 06:14:59;;;;;;;15.10;7.82;;;;;;;10.49;72.95;100904.13;5086811;28;20106;-28
2022/11/01 06:17:25;;;;;;;19.83;9.13;;;;;;;10.58;72.85;100894.13;5086748;28;20081;-28
2022/11/01 06:19:50;;;;;;;20.13;9.73;;;;;;;10.94;72.00;100893.84;5086540;28;20031;-26
2022/11/01 06:22:15;;;;;;;21.25;9.88;;;;;;;11.17;71.53;100882.81;5086338;28;20067;-28
2022/11/01 06:24:41;;;;;;;15.00;10.10;;;;;;;11.22;70.85;100880.38;5086516;28;20407;-26
2022/11/01 06:27:06;;;;;;;19.88;9.98;;;;;;;11.38;71.12;100883.66;5086233;28;20471;-26
2022/11/01 06:29:32;;;;;;;17.08;10.35;;;;;;;11.61;70.58;100904.66;5086571;28;20032;-27
2022/11/01 06:31:57;;;;;;;18.10;9.85;;;;;;;11.75;70.23;100902.78;5086934;28;20031;-30
2022/11/01 06:34:22;;;;;;;20.15;10.55;;;;;;;11.71;69.87;100883.69;5085837;28;20471;-25
2022/11/01 06:36:48;;;;;;;19.45;10.90;;;;;;;11.77;70.06;100874.84;5086582;28;20034;-26
2022/11/01 06:39:13;;;;;;;17.83;10.30;;;;;;;11.85;69.79;100889.84;5086351;28;20415;-26
2022/11/01 06:41:39;;;;;;;19.25;10.02;;;;;;;12.33;68.50;100897.59;5086389;28;20055;-26
2022/11/01 06:44:04;;;;;;;18.05;9.60;;;;;;;12.38;69.04;100897.81;5067911;28;20093;-30
2022/11/01 06:46:29;;;;;;;15.60;9.63;;;;;;;12.61;67.89;100899.97;5086398;28;20480;-26
2022/11/01 06:48:55;;;;;;;15.45;9.77;;;;;;;12.65;67.43;100901.22;5090448;28;20107;-28
2022/11/01 06:51:20;;;;;;;15.13;9.77;;;;;;;12.76;67.79;100880.16;5089036;28;20024;-29
2022/11/01 06:53:46;;;;;;;17.17;9.50;;;;;;;13.14;67.28;100914.97;5090302;28;20023;-27
2022/11/01 06:56:11;;;;;;;18.38;9.10;;;;;;;13.26;66.35;100902.53;5090267;28;20468;-26
2022/11/01 06:58:36;;;;;;;17.05;9.02;;;;;;;13.35;66.56;100899.63;5071286;28;20032;-27
2022/11/01 07:01:02;;;;;;;14.50;10.02;;;;;;;13.54;66.18;100901.34;5088492;28;20032;-25
2022/11/01 07:03:27;;;;;;;16.25;10.02;;;;;;;13.82;65.87;100900.09;5090359;28;20072;-28
2022/11/01 07:05:53;;;;;;;16.77;9.10;;;;;;;13.86;65.98;100912.00;5089921;28;20431;-26
2022/11/01 07:08:18;;;;;;;14.82;9.43;;;;;;;13.98;65.51;100910.25;5071337;28;20032;-29
2022/11/01 07:10:44;;;;;;;17.70;9.32;;;;;;;14.35;63.98;100909.47;5089954;28;20024;-27
2022/11/01 07:13:12;;;;;;;19.55;10.77;;;;;;;14.30;64.64;100903.94;5089636;28;20032;-26
2022/11/01 07:15:38;;;;;;;15.13;8.77;;;;;;;14.46;63.54;100895.31;5089642;28;20549;-28
2022/11/01 07:18:07;;;;;;;17.15;9.27;;;;;;;14.66;63.29;100905.84;5089665;28;20040;-28
2022/11/01 07:20:39;;;;;;;18.08;8.77;;;;;;;14.83;62.85;100893.44;5071217;28;20608;-30
2022/11/01 07:23:07;;;;;;;17.27;8.90;;;;;;;14.98;61.25;100893.03;5089520;28;20049;-30
2022/11/01 07:25:34;;;;;;;14.88;7.88;;;;;;;14.99;61.54;100885.78;5089648;28;20173;-28
2022/11/01 07:28:00;;;;;;;16.05;7.97;;;;;;;15.41;60.48;100899.25;5089790;28;20080;-27
2022/11/01 07:30:26;;;;;;;19.80;7.55;;;;;;;15.52;59.87;100908.38;5071083;28;20116;-30
2022/11/01 07:32:56;;;;;;;20.00;7.53;;;;;;;15.72;59.81;100908.06;5089340;28;20039;-26
2022/11/01 07:35:22;;;;;;;17.58;7.93;;;;;;;15.98;58.93;100912.22;5089455;28;20036;-31
2022/11/01 07:37:47;;;;;;;14.05;7.85;;;;;;;16.11;58.86;100905.75;5089360;28;20028;-25
2022/11/01 07:40:13;;;;;;;14.20;8.20;;;;;;;16.09;59.27;100903.28;5089174;28;20032;-26
2022/11/01 07:42:42;;;;;;;13.82;7.40;;;;;;;16.23;58.44;100909.25;5089417;28;20024;-25
2022/11/01 07:45:12;;;;;;;11.57;7.03;;;;;;;16.35;58.77;100906.56;5089300;28;20024;-28
2022/11/01 07:47:37;;;;;;;11.85;6.95;;;;;;;16.27;57.59;100899.66;5089257;28;20518;-29
2022/11/01 07:50:04;;;;;;;13.52;7.22;;;;;;;16.42;57.93;100897.28;5089400;28;20024;-26
2022/11/01 07:52:30;;;;;;;10.73;6.68;;;;;;;16.39;58.35;100895.06;5088518;28;20443;-28
2022/11/01 07:54:56;;;;;;;14.63;6.90;;;;;;;16.76;57.24;100897.44;5088910;28;20059;-28
2022/11/01 07:57:21;;;;;;;15.57;7.72;;;;;;;16.79;56.61;100875.38;5088880;28;20458;-27
2022/11/01 07:59:46;;;;;;;15.75;7.10;;;;;;;16.79;57.51;100894.25;5089085;28;20031;-27
2022/11/01 08:02:12;;;;;;;13.88;7.13;;;;;;;16.95;57.25;100895.38;5089269;28;20458;-27
2022/11/01 08:04:37;;;;;;;14.65;6.95;;;;;;;17.10;56.17;100886.78;5088568;28;20034;-27
2022/11/01 08:07:03;;;;;;;13.25;7.10;;;;;;;16.99;56.24;100879.56;5088689;28;20055;-26
2022/11/01 08:09:28;;;;;;;18.35;7.50;;;;;;;17.32;55.60;100881.50;5088937;28;20024;-27
2022/11/01 08:11:54;;;;;;;12.88;6.95;;;;;;;17.45;55.48;100877.69;5089132;28;20024;-26
2022/11/01 08:14:19;;;;;;;19.52;7.60;;;;;;;17.66;54.86;100884.22;5088643;28;20032;-25
2022/11/01 08:16:49;;;;;;;12.52;6.85;;;;;;;17.72;53.71;100872.44;5088627;28;20024;-26
2022/11/01 08:19:14;;;;;;;13.13;6.38;;;;;;;17.81;53.62;100887.13;5088729;28;20047;-27
2022/11/01 08:21:39;;;;;;;13.88;6.38;;;;;;;17.81;53.91;100880.94;5088517;28;20028;-28
2022/11/01 08:24:05;;;;;;;13.48;6.50;;;;;;;18.01;53.30;100886.66;5088435;28;20047;-26
2022/11/01 08:26:30;;;;;;;11.88;5.75;;;;;;;18.13;52.99;100866.84;5088409;28;20032;-27
2022/11/01 08:28:56;;;;;;;15.40;6.38;;;;;;;18.17;52.83;100870.69;5087106;28;20484;-27
2022/11/01 08:31:22;;;;;;;9.90;6.30;;;;;;;18.55;52.63;100868.97;5088506;28;20585;-26
2022/11/01 08:33:47;;;;;;;12.88;5.25;;;;;;;18.85;52.10;100885.56;5088191;28;20032;-31
2022/11/01 08:36:14;;;;;;;11.18;6.22;;;;;;;18.93;51.10;100857.28;5088298;28;20036;-26
2022/11/01 08:38:39;;;;;;;12.60;5.70;;;;;;;19.07;49.55;100853.09;5088022;28;20042;-25
2022/11/01 08:41:05;;;;;;;10.48;5.85;;;;;;;19.21;49.80;100866.19;5088197;28;20028;-28
2022/11/01 08:43:30;;;;;;;13.82;5.65;;;;;;;19.19;49.97;100858.34;5088243;28;20051;-26
2022/11/01 08:45:57;;;;;;;8.38;5.00;;;;;;;19.22;51.46;100855.09;5086826;28;20055;-25
2022/11/01 08:48:23;;;;;;;12.75;5.07;;;;;;;19.58;48.34;100874.34;5069772;28;20028;-26
2022/11/01 08:50:48;;;;;;;8.93;4.93;;;;;;;19.11;49.75;100839.06;5087650;28;20035;-30
2022/11/01 08:53:14;;;;;;;15.07;5.75;;;;;;;19.47;48.77;100849.09;5088003;28;20031;-29
2022/11/01 08:55:40;;;;;;;9.73;4.20;;;;;;;19.91;48.62;100864.31;5087548;28;20039;-27
2022/11/01 08:58:07;;;;;;;8.38;4.35;;;;;;;19.91;47.63;100856.19;5087963;28;20036;-26
2022/11/01 09:00:34;;;;;;;10.90;3.97;;;;;;;19.87;47.74;100836.13;5087344;28;20059;-30
2022/11/01 09:02:59;;;;;;;8.20;3.83;;;;;;;20.17;46.74;100854.44;5087766;28;20043;-28
2022/11/01 09:05:24;;;;;;;9.40;4.32;;;;;;;20.32;45.45;100842.84;5087474;28;20040;-27
2022/11/01 09:07:55;;;;;;;7.72;3.75;;;;;;;20.48;46.84;100847.22;5069154;28;20028;-26
2022/11/01 09:10:21;;;;;;;13.95;4.18;;;;;;;20.50;45.59;100851.59;5068409;28;20038;-27
2022/11/01 09:12:46;;;;;;;9.45;4.30;;;;;;;20.63;45.43;100853.81;5087867;28;20032;-27
2022/11/01 09:15:12;;;;;;;11.07;4.57;;;;;;;20.79;44.95;100847.34;5069326;28;20028;-28
2022/11/01 09:17:37;;;;;;;9.60;4.28;;;;;;;20.78;46.03;100834.88;5087658;28;20567;-27
2022/11/01 09:20:03;;;;;;;10.52;4.65;;;;;;;21.15;44.91;100843.88;5087368;28;20028;-28
2022/11/01 09:22:29;;;;;;;8.02;4.13;;;;;;;21.51;43.99;100855.56;5087319;28;20028;-28
2022/11/01 09:24:56;;;;;;;8.68;4.10;;;;;;;21.72;43.47;100842.78;5087690;28;20036;-28
2022/11/01 09:27:22;;;;;;;11.23;4.00;;;;;;;21.48;43.25;100837.13;5087860;28;20096;-31
2022/11/01 09:29:47;;;;;;;8.88;3.92;;;;;;;21.66;42.53;100828.41;5087476;28;20549;-29
2022/11/01 09:32:13;;;;;;;9.80;4.32;;;;;;;21.73;42.04;100835.44;5087206;28;20063;-27
2022/11/01 09:34:38;;;;;;;10.02;3.90;;;;;;;21.74;43.39;100818.06;5086744;28;20035;-26
2022/11/01 09:37:04;;;;;;;9.45;3.47;;;;;;;22.19;41.39;100840.72;5087440;28;20053;-27
2022/11/01 09:39:29;;;;;;;14.25;4.55;;;;;;;22.15;41.56;100837.78;5068852;28;20031;-30
2022/11/01 09:42:03;;;;;;;6.30;3.20;;;;;;;22.02;41.31;100832.91;5087367;28;20468;-27
2022/11/01 09:44:33;;;;;;;6.53;3.38;;;;;;;22.30;40.90;100815.19;5086793;28;20066;-28
2022/11/01 09:47:29;;;;;;;9.30;3.80;;;;;;;22.67;40.31;100832.94;5068637;28;20032;-26
2022/11/01 09:50:10;;;;;;;8.45;3.60;;;;;;;22.72;41.02;100824.75;5069768;28;20527;-29
2022/11/01 09:52:36;;;;;;;9.65;3.65;;;;;;;23.05;39.55;100825.09;5086772;28;20035;-27
2022/11/01 09:55:02;;;;;;;8.95;3.70;;;;;;;23.16;38.74;100799.41;5086944;28;20032;-26
2022/11/01 09:57:41;;;;;;;8.82;3.88;;;;;;;23.33;38.82;100812.59;5086514;28;20054;-29
2022/11/01 10:00:15;;;;;;;9.73;3.72;;;;;;;23.27;39.01;100806.41;5087113;28;20472;-27
2022/11/01 10:02:44;;;;;;;9.95;4.05;;;;;;;23.74;38.95;100805.94;5086971;28;20028;-29
2022/11/01 10:05:29;;;;;;;10.63;4.00;;;;;;;23.53;38.36;100797.19;5086808;28;20048;-28
2022/11/01 10:08:12;;;;;;;9.60;4.28;;;;;;;23.51;38.50;100799.38;5086796;28;20088;-26
2022/11/01 10:11:03;;;;;;;9.85;4.30;;;;;;;23.81;39.33;100798.28;5086683;28;20036;-30
2022/11/01 10:13:31;;;;;;;6.90;3.90;;;;;;;24.27;36.63;100798.53;5085392;28;20105;-27
2022/11/01 10:16:17;;;;;;;9.38;4.60;;;;;;;24.32;37.73;100797.63;5086612;28;20024;-26
2022/11/01 10:18:57;;;;;;;12.10;3.90;;;;;;;24.21;36.57;100775.16;5086607;28;20054;-30
2022/11/01 10:21:24;;;;;;;9.57;4.30;;;;;;;24.50;36.10;100787.06;5088113;28;20258;-27
2022/11/01 10:23:51;;;;;;;;;;;;;;;24.89;35.16;100794.94;5091275;28;20457;-28
2022/11/01 10:26:26;;;;;;;10.70;5.03;;;;;;;24.91;35.74;100791.88;5090356;28;19947;-27
2022/11/01 10:28:54;;;;;;;7.35;4.45;;;;;;;24.94;35.28;100783.91;5090319;28;20040;-26
2022/11/01 10:31:23;;;;;;;10.98;5.25;;;;;;;24.97;35.47;100785.25;5090563;28;20055;-28
2022/11/01 10:34:03;;;;;;;8.38;4.88;;;;;;;25.32;35.27;100785.78;5089235;28;20032;-27
2022/11/01 10:36:33;;;;;;;10.18;4.47;;;;;;;25.45;33.62;100768.59;5090209;28;20412;-30
2022/11/01 10:39:17;;;;;;;11.93;4.45;;;;;;;25.65;33.27;100773.69;5072188;28;20034;-29
2022/11/01 10:41:52;;;;;;;11.60;4.45;;;;;;;25.56;33.96;100759.13;5090447;28;20043;-28
2022/11/01 10:44:31;;;;;;;9.25;4.60;;;;;;;25.71;33.63;100766.19;5090395;28;20036;-28
2022/11/01 10:46:59;;;;;;;9.15;4.75;;;;;;;25.53;33.63;100737.06;5090350;28;20024;-26
2022/11/01 10:49:32;;;;;;;11.48;4.78;;;;;;;25.88;33.41;100751.13;5071856;28;20028;-29
2022/11/01 10:52:02;;;;;;;13.82;5.85;;;;;;;26.51;31.95;100752.22;5090225;28;20028;-29
2022/11/01 10:54:31;;;;;;;11.68;5.72;;;;;;;26.11;31.85;100741.09;5071840;28;20380;-28
2022/11/01 10:57:01;;;;;;;10.93;7.13;;;;;;;25.91;32.75;100737.69;5072027;28;20456;-27
2022/11/01 10:59:39;;;;;;;10.52;5.68;;;;;;;26.15;32.19;100736.63;5090268;28;20028;-27
2022/11/01 11:02:07;;;;;;;;;;;;;;;26.20;32.30;100740.06;5090831;28;20047;-28
2022/11/01 11:04:33;;;;;;;12.55;5.72;;;;;;;26.62;32.65;100734.47;5089970;28;19916;-27
2022/11/01 11:06:58;;;;;;;11.93;6.00;;;;;;;26.86;32.00;100728.69;5090066;28;20606;-29
2022/11/01 11:09:28;;;;;;;14.77;6.35;;;;;;;27.11;31.91;100738.16;5090088;28;20551;-30
2022/11/01 11:11:58;;;;;;;13.55;6.70;;;;;;;27.28;31.34;100725.69;5089947;28;20164;-28
2022/11/01 11:14:26;;;;;;;12.48;7.68;;;;;;;27.32;30.80;100729.41;5089765;28;20874;-27
2022/11/01 11:16:55;;;;;;;15.10;8.02;;;;;;;27.58;30.20;100715.81;5089676;28;20055;-27
2022/11/01 11:19:37;;;;;;;11.68;6.97;;;;;;;27.74;30.62;100719.75;5089979;28;20789;-26
2022/11/01 11:22:07;;;;;;;15.35;7.32;;;;;;;27.44;29.85;100721.41;5089956;28;20035;-27
2022/11/01 11:24:35;;;;;;;14.25;7.88;;;;;;;27.52;29.80;100709.69;5089611;28;20839;-26
2022/11/01 11:27:03;;;;;;;14.90;7.50;;;;;;;27.84;29.75;100708.47;5089773;28;20078;-27
2022/11/01 11:29:28;;;;;;;10.05;4.47;;;;;;;27.71;29.13;100708.63;5089783;28;20487;-27
2022/11/01 11:31:58;;;;;;;11.85;6.72;;;;;;;27.53;30.39;100696.81;5089838;28;20028;-28
2022/11/01 11:34:27;;;;;;;11.27;6.35;;;;;;;27.82;29.21;100696.22;5088587;28;20060;-28
2022/11/01 11:36:53;;;;;;;14.57;7.63;;;;;;;28.36;28.41;100701.44;5071233;28;20039;-27